createdAt,value
2018-09-17T00:00:12.535Z,17.70
2018-09-17T00:02:40.629Z,17.70
2018-09-17T00:05:08.713Z,17.60
2018-09-17T00:07:36.768Z,17.40
2018-09-17T00:10:04.965Z,17.40
2018-09-17T00:12:33.064Z,17.40
2018-09-17T00:15:01.158Z,17.40
2018-09-17T00:17:29.269Z,17.30
2018-09-17T00:19:57.369Z,17.50
2018-09-17T00:22:26.510Z,17.50
2018-09-17T00:24:54.613Z,17.60
2018-09-17T00:27:22.694Z,17.60
2018-09-17T00:29:50.772Z,17.50
2018-09-17T00:32:18.842Z,17.50
2018-09-17T00:34:46.936Z,17.60
2018-09-17T00:37:15.017Z,17.60
2018-09-17T00:39:43.117Z,17.60
2018-09-17T00:42:11.184Z,17.60
2018-09-17T00:44:39.244Z,17.50
2018-09-17T00:47:07.368Z,17.40
2018-09-17T00:49:35.489Z,17.30
2018-09-17T00:52:03.637Z,17.20
2018-09-17T00:54:31.724Z,17.20
2018-09-17T00:56:59.836Z,17.20
2018-09-17T00:59:27.996Z,17.30
2018-09-17T01:01:56.149Z,17.30
2018-09-17T01:04:24.251Z,17.20
2018-09-17T01:06:52.372Z,17.20
2018-09-17T01:09:25.838Z,17.20
2018-09-17T01:11:53.958Z,17.20
2018-09-17T01:14:22.036Z,17.20
2018-09-17T01:16:50.124Z,17.20
2018-09-17T01:19:18.203Z,17.20
2018-09-17T01:21:46.283Z,17.20
2018-09-17T01:24:14.480Z,17.20
2018-09-17T01:26:42.616Z,17.20
2018-09-17T01:29:10.669Z,17.20
2018-09-17T01:31:38.926Z,17.20
2018-09-17T01:34:07.224Z,17.20
2018-09-17T01:36:35.355Z,17.20
2018-09-17T01:39:04.082Z,17.00
2018-09-17T01:41:32.157Z,17.00
2018-09-17T01:44:00.311Z,17.00
2018-09-17T01:46:28.423Z,17.10
2018-09-17T01:48:56.565Z,17.10
2018-09-17T01:51:24.742Z,17.20
2018-09-17T01:53:52.806Z,17.10
2018-09-17T01:56:20.892Z,17.10
2018-09-17T01:58:49.417Z,17.00
2018-09-17T02:01:17.512Z,17.00
2018-09-17T02:03:45.568Z,17.00
2018-09-17T02:06:13.676Z,16.80
2018-09-17T02:08:41.780Z,16.80
2018-09-17T02:11:09.852Z,16.80
2018-09-17T02:13:38.041Z,16.80
2018-09-17T02:16:06.536Z,17.00
2018-09-17T02:18:34.623Z,17.00
2018-09-17T02:21:02.737Z,16.90
2018-09-17T02:23:31.033Z,17.00
2018-09-17T02:25:59.140Z,17.00
2018-09-17T02:28:27.452Z,17.00
2018-09-17T02:30:55.593Z,17.00
2018-09-17T02:33:23.756Z,17.00
2018-09-17T02:35:51.837Z,16.90
2018-09-17T02:38:19.913Z,16.80
2018-09-17T02:40:47.984Z,16.80
2018-09-17T02:43:16.056Z,16.80
2018-09-17T02:45:44.117Z,16.80
2018-09-17T02:48:12.185Z,16.80
2018-09-17T02:50:40.265Z,16.80
2018-09-17T02:53:08.319Z,16.70
2018-09-17T02:55:36.404Z,16.70
2018-09-17T02:58:04.457Z,16.70
2018-09-17T03:00:32.525Z,16.70
2018-09-17T03:03:00.605Z,16.70
2018-09-17T03:05:28.697Z,16.70
2018-09-17T03:07:56.838Z,16.70
2018-09-17T03:10:25.000Z,16.70
2018-09-17T03:12:53.061Z,16.60
2018-09-17T03:15:32.617Z,16.60
2018-09-17T03:18:00.693Z,16.60
2018-09-17T03:20:30.017Z,16.60
2018-09-17T03:22:58.120Z,16.60
2018-09-17T03:25:26.291Z,16.60
2018-09-17T03:27:54.365Z,16.70
2018-09-17T03:30:22.474Z,16.60
2018-09-17T03:32:50.544Z,16.60
2018-09-17T03:35:18.624Z,16.60
2018-09-17T03:37:46.711Z,16.70
2018-09-17T03:40:14.798Z,16.70
2018-09-17T03:42:42.857Z,16.70
2018-09-17T03:45:10.960Z,16.60
2018-09-17T03:47:39.092Z,16.60
2018-09-17T03:50:07.193Z,16.70
2018-09-17T03:52:35.249Z,16.70
2018-09-17T03:55:03.373Z,16.70
2018-09-17T03:57:31.480Z,16.60
2018-09-17T03:59:59.575Z,16.60
2018-09-17T04:02:27.769Z,16.60
2018-09-17T04:04:55.893Z,16.70
2018-09-17T04:07:24.820Z,16.70
2018-09-17T04:09:52.941Z,16.70
2018-09-17T04:12:21.027Z,16.60
2018-09-17T04:14:49.096Z,16.60
2018-09-17T04:17:17.174Z,16.70
2018-09-17T04:19:45.241Z,16.60
2018-09-17T04:22:13.330Z,16.60
2018-09-17T04:24:41.401Z,16.60
2018-09-17T04:27:09.541Z,16.60
2018-09-17T04:29:37.644Z,16.60
2018-09-17T04:32:05.726Z,16.60
2018-09-17T04:34:33.801Z,16.50
2018-09-17T04:37:01.889Z,16.50
2018-09-17T04:39:30.101Z,16.40
2018-09-17T04:41:58.436Z,16.40
2018-09-17T04:44:26.541Z,16.50
2018-09-17T04:46:54.615Z,16.50
2018-09-17T04:49:22.694Z,16.50
2018-09-17T04:51:50.785Z,16.60
2018-09-17T04:54:18.897Z,16.60
2018-09-17T04:56:46.973Z,16.50
2018-09-17T04:59:15.077Z,16.50
2018-09-17T05:01:43.196Z,16.50
2018-09-17T05:04:11.276Z,16.40
2018-09-17T05:06:39.360Z,16.50
2018-09-17T05:09:08.393Z,16.40
2018-09-17T05:11:36.501Z,16.40
2018-09-17T05:14:04.625Z,16.40
2018-09-17T05:16:32.788Z,16.40
2018-09-17T05:19:00.955Z,16.30
2018-09-17T05:21:29.093Z,16.30
2018-09-17T05:23:57.191Z,16.30
2018-09-17T05:26:25.352Z,16.30
2018-09-17T05:28:53.505Z,16.30
2018-09-17T05:31:21.590Z,16.40
2018-09-17T05:33:49.664Z,16.50
2018-09-17T05:36:17.757Z,16.50
2018-09-17T05:38:45.979Z,16.30
2018-09-17T05:41:14.075Z,16.40
2018-09-17T05:43:42.149Z,16.40
2018-09-17T05:46:10.217Z,16.40
2018-09-17T05:48:38.320Z,16.40
2018-09-17T05:51:06.405Z,16.50
2018-09-17T05:53:34.502Z,16.40
2018-09-17T05:56:02.620Z,16.50
2018-09-17T05:58:30.788Z,16.50
2018-09-17T06:00:58.951Z,16.50
2018-09-17T06:03:27.234Z,16.60
2018-09-17T06:05:55.417Z,16.50
2018-09-17T06:08:23.495Z,16.50
2018-09-17T06:10:51.634Z,16.50
2018-09-17T06:13:19.705Z,16.50
2018-09-17T06:15:47.789Z,16.60
2018-09-17T06:18:15.860Z,16.60
2018-09-17T06:20:43.964Z,16.60
2018-09-17T06:23:12.040Z,16.60
2018-09-17T06:25:40.156Z,16.70
2018-09-17T06:28:08.215Z,16.80
2018-09-17T06:30:36.278Z,16.80
2018-09-17T06:33:04.460Z,16.70
2018-09-17T06:35:32.560Z,16.70
2018-09-17T06:38:00.689Z,16.70
2018-09-17T06:40:28.823Z,16.70
2018-09-17T06:42:57.065Z,16.80
2018-09-17T06:45:25.206Z,16.80
2018-09-17T06:47:53.317Z,16.70
2018-09-17T06:50:21.356Z,16.70
2018-09-17T06:52:49.446Z,16.80
2018-09-17T06:55:17.510Z,16.80
2018-09-17T06:57:45.589Z,16.60
2018-09-17T07:00:13.716Z,16.80
2018-09-17T07:02:41.797Z,16.90
2018-09-17T07:05:09.897Z,17.00
2018-09-17T07:07:38.044Z,17.00
2018-09-17T07:10:07.044Z,17.00
2018-09-17T07:12:35.184Z,17.00
2018-09-17T07:15:03.305Z,17.00
2018-09-17T07:17:31.417Z,17.10
2018-09-17T07:19:59.546Z,17.20
2018-09-17T07:22:27.663Z,17.20
2018-09-17T07:24:55.875Z,17.20
2018-09-17T07:27:24.004Z,17.40
2018-09-17T07:29:52.158Z,17.40
2018-09-17T07:32:20.245Z,17.40
2018-09-17T07:34:48.316Z,17.30
2018-09-17T07:37:16.409Z,17.10
2018-09-17T07:39:44.517Z,17.20
2018-09-17T07:42:12.598Z,17.30
2018-09-17T07:44:40.706Z,17.40
2018-09-17T07:47:08.788Z,17.40
2018-09-17T07:49:36.872Z,17.40
2018-09-17T07:52:04.953Z,17.50
2018-09-17T07:54:33.101Z,17.50
2018-09-17T07:57:01.251Z,17.50
2018-09-17T07:59:29.391Z,17.40
2018-09-17T08:01:57.529Z,17.40
2018-09-17T08:04:26.345Z,17.40
2018-09-17T08:06:54.710Z,17.50
2018-09-17T08:09:22.808Z,17.50
2018-09-17T08:11:51.116Z,17.60
2018-09-17T08:14:19.223Z,17.70
2018-09-17T08:16:47.373Z,17.80
2018-09-17T08:19:15.461Z,18.00
2018-09-17T08:21:43.555Z,18.00
2018-09-17T08:24:11.678Z,18.00
2018-09-17T08:26:39.765Z,18.00
2018-09-17T08:29:08.120Z,18.10
2018-09-17T08:31:36.227Z,18.20
2018-09-17T08:34:04.528Z,18.30
2018-09-17T08:36:32.665Z,18.50
2018-09-17T08:39:00.760Z,18.60
2018-09-17T08:41:28.923Z,18.50
2018-09-17T08:43:57.085Z,18.60
2018-09-17T08:46:25.269Z,18.70
2018-09-17T08:48:53.321Z,19.00
2018-09-17T08:51:21.448Z,18.90
2018-09-17T08:53:49.539Z,19.00
2018-09-17T08:56:21.104Z,19.30
2018-09-17T08:58:54.743Z,19.30
2018-09-17T09:01:28.257Z,19.20
2018-09-17T09:05:02.355Z,19.30
2018-09-17T09:07:35.612Z,19.40
2018-09-17T09:10:10.345Z,19.40
2018-09-17T09:12:39.877Z,19.40
2018-09-17T09:15:13.653Z,19.40
2018-09-17T09:17:41.764Z,19.80
2018-09-17T09:20:09.868Z,19.80
2018-09-17T09:22:37.976Z,19.80
2018-09-17T09:25:06.073Z,19.70
2018-09-17T09:27:34.194Z,19.80
2018-09-17T09:30:02.310Z,19.90
2018-09-17T09:32:30.458Z,19.80
2018-09-17T09:34:58.584Z,19.80
2018-09-17T09:37:26.720Z,19.90
2018-09-17T09:39:54.848Z,20.00
2018-09-17T09:42:22.924Z,20.20
2018-09-17T09:44:51.028Z,20.20
2018-09-17T09:47:19.107Z,20.20
2018-09-17T09:49:47.212Z,20.20
2018-09-17T09:52:15.274Z,20.40
2018-09-17T09:54:43.444Z,20.30
2018-09-17T09:57:11.592Z,20.30
2018-09-17T09:59:39.686Z,20.40
2018-09-17T10:02:13.209Z,20.40
2018-09-17T10:04:41.318Z,20.40
2018-09-17T10:07:09.428Z,20.40
2018-09-17T10:09:43.012Z,20.30
2018-09-17T10:12:16.529Z,20.40
2018-09-17T10:14:49.990Z,20.70
2018-09-17T10:17:23.473Z,20.60
2018-09-17T10:19:52.572Z,20.40
2018-09-17T10:22:20.984Z,20.70
2018-09-17T10:24:49.089Z,20.80
2018-09-17T10:27:17.860Z,20.90
2018-09-17T10:29:46.042Z,20.90
2018-09-17T10:32:14.238Z,20.90
2018-09-17T10:34:42.625Z,20.80
2018-09-17T10:37:11.125Z,20.90
2018-09-17T10:39:39.264Z,20.80
2018-09-17T10:42:07.296Z,20.70
2018-09-17T10:44:35.440Z,20.70
2018-09-17T10:47:03.572Z,20.70
2018-09-17T10:49:31.716Z,20.70
2018-09-17T10:51:59.820Z,20.80
2018-09-17T10:54:27.912Z,20.70
2018-09-17T10:56:56.151Z,20.80
2018-09-17T10:59:24.285Z,20.70
2018-09-17T11:01:52.368Z,20.80
2018-09-17T11:04:20.504Z,20.90
2018-09-17T11:06:48.596Z,21.10
2018-09-17T11:09:16.705Z,21.20
2018-09-17T11:11:44.779Z,21.10
2018-09-17T11:14:12.848Z,21.10
2018-09-17T11:16:40.980Z,22.30
2018-09-17T11:19:09.061Z,22.10
2018-09-17T11:21:37.179Z,21.50
2018-09-17T11:24:05.280Z,21.80
2018-09-17T11:26:33.412Z,22.00
2018-09-17T11:29:01.550Z,22.40
2018-09-17T11:31:29.676Z,23.00
2018-09-17T11:33:57.795Z,22.50
2018-09-17T11:36:25.907Z,22.20
2018-09-17T11:38:54.222Z,21.80
2018-09-17T11:41:22.326Z,22.30
2018-09-17T11:43:50.556Z,22.00
2018-09-17T11:46:18.672Z,21.80
2018-09-17T11:48:46.827Z,22.50
2018-09-17T11:51:14.907Z,22.30
2018-09-17T11:53:43.000Z,22.20
2018-09-17T11:56:11.081Z,22.80
2018-09-17T11:58:39.169Z,23.00
2018-09-17T12:01:12.820Z,22.40
2018-09-17T12:03:46.476Z,22.10
2018-09-17T12:06:18.836Z,22.40
2018-09-17T12:08:46.940Z,22.80
2018-09-17T12:11:15.082Z,22.60
2018-09-17T12:13:43.144Z,23.70
2018-09-17T12:16:11.256Z,23.20
2018-09-17T12:18:39.317Z,22.40
2018-09-17T12:21:07.381Z,22.40
2018-09-17T12:23:35.504Z,22.50
2018-09-17T12:26:03.634Z,23.20
2018-09-17T12:28:31.741Z,23.40
2018-09-17T12:30:59.872Z,22.30
2018-09-17T12:33:28.022Z,22.00
2018-09-17T12:35:56.157Z,22.50
2018-09-17T12:38:24.259Z,22.10
2018-09-17T12:40:52.316Z,22.50
2018-09-17T12:43:20.420Z,23.20
2018-09-17T12:45:48.560Z,22.90
2018-09-17T12:48:16.615Z,22.60
2018-09-17T12:50:44.746Z,23.20
2018-09-17T12:53:12.825Z,23.50
2018-09-17T12:55:40.959Z,23.50
2018-09-17T12:58:09.037Z,23.40
2018-09-17T13:00:37.129Z,22.60
2018-09-17T13:03:05.431Z,21.80
2018-09-17T13:05:33.551Z,21.60
2018-09-17T13:08:01.641Z,22.00
2018-09-17T13:10:29.781Z,22.40
2018-09-17T13:12:57.884Z,23.20
2018-09-17T13:15:26.353Z,23.50
2018-09-17T13:17:54.454Z,23.90
2018-09-17T13:20:22.554Z,23.20
2018-09-17T13:22:50.629Z,23.00
2018-09-17T13:25:18.729Z,23.20
2018-09-17T13:27:46.820Z,23.50
2018-09-17T13:30:14.912Z,24.00
2018-09-17T13:32:42.993Z,23.60
2018-09-17T13:35:11.093Z,22.80
2018-09-17T13:37:39.172Z,22.00
2018-09-17T13:40:07.249Z,21.90
2018-09-17T13:42:35.505Z,22.30
2018-09-17T13:45:03.505Z,23.60
2018-09-17T13:47:31.665Z,22.90
2018-09-17T13:49:59.801Z,22.20
2018-09-17T13:52:27.912Z,22.20
2018-09-17T13:54:56.037Z,22.60
2018-09-17T13:57:24.112Z,22.50
2018-09-17T13:59:52.227Z,22.00
2018-09-17T14:02:20.333Z,21.70
2018-09-17T14:04:48.400Z,21.50
2018-09-17T14:07:16.540Z,22.30
2018-09-17T14:09:44.624Z,22.60
2018-09-17T14:12:12.713Z,22.90
2018-09-17T14:14:40.823Z,23.30
2018-09-17T14:17:08.921Z,22.70
2018-09-17T14:19:36.990Z,22.30
2018-09-17T14:22:05.085Z,21.80
2018-09-17T14:24:33.188Z,22.70
2018-09-17T14:27:01.304Z,22.90
2018-09-17T14:29:29.412Z,22.90
2018-09-17T14:32:03.211Z,23.00
2018-09-17T14:34:31.379Z,24.40
2018-09-17T14:36:59.571Z,24.30
2018-09-17T14:39:27.759Z,23.40
2018-09-17T14:41:55.882Z,23.90
2018-09-17T14:44:23.992Z,24.00
2018-09-17T14:46:52.081Z,23.00
2018-09-17T14:49:20.178Z,22.90
2018-09-17T14:51:48.288Z,23.00
2018-09-17T14:54:16.389Z,23.10
2018-09-17T14:56:44.455Z,23.20
2018-09-17T14:59:12.583Z,23.60
2018-09-17T15:01:40.861Z,23.50
2018-09-17T15:04:08.805Z,23.00
2018-09-17T15:06:37.075Z,22.80
2018-09-17T15:09:07.145Z,22.60
2018-09-17T15:11:35.257Z,22.40
2018-09-17T15:14:03.409Z,22.00
2018-09-17T15:16:31.517Z,21.60
2018-09-17T15:18:59.854Z,21.70
2018-09-17T15:21:28.050Z,21.80
2018-09-17T15:23:56.351Z,21.80
2018-09-17T15:26:25.146Z,21.90
2018-09-17T15:28:53.201Z,21.90
2018-09-17T15:31:21.427Z,22.60
2018-09-17T15:33:49.432Z,22.80
2018-09-17T15:36:17.517Z,23.10
2018-09-17T15:38:45.613Z,22.40
2018-09-17T15:41:13.783Z,22.50
2018-09-17T15:43:41.867Z,22.50
2018-09-17T15:46:10.087Z,22.40
2018-09-17T15:48:38.116Z,22.10
2018-09-17T15:51:06.249Z,22.60
2018-09-17T15:53:34.387Z,22.80
2018-09-17T15:56:02.580Z,22.80
2018-09-17T15:58:30.745Z,22.50
2018-09-17T16:00:58.937Z,22.50
2018-09-17T16:03:27.095Z,23.30
2018-09-17T16:05:55.238Z,22.60
2018-09-17T16:08:23.317Z,22.10
2018-09-17T16:10:51.416Z,22.10
2018-09-17T16:13:19.537Z,21.90
2018-09-17T16:15:48.052Z,22.10
2018-09-17T16:18:16.212Z,22.30
2018-09-17T16:20:44.296Z,22.30
2018-09-17T16:23:12.376Z,22.10
2018-09-17T16:25:40.461Z,21.90
2018-09-17T16:28:08.516Z,22.10
2018-09-17T16:30:36.603Z,22.30
2018-09-17T16:33:04.676Z,22.20
2018-09-17T16:35:32.815Z,22.00
2018-09-17T16:38:00.902Z,22.00
2018-09-17T16:40:29.065Z,22.00
2018-09-17T16:42:57.165Z,21.90
2018-09-17T16:45:25.252Z,22.00
2018-09-17T16:47:53.338Z,22.20
2018-09-17T16:50:21.437Z,22.10
2018-09-17T16:52:49.585Z,22.10
2018-09-17T16:55:17.621Z,22.00
2018-09-17T16:57:45.700Z,21.80
2018-09-17T17:00:13.910Z,21.80
2018-09-17T17:02:42.071Z,21.80
2018-09-17T17:05:10.201Z,21.80
2018-09-17T17:07:38.237Z,21.70
2018-09-17T17:10:06.395Z,21.80
2018-09-17T17:12:34.497Z,21.90
2018-09-17T17:15:02.595Z,21.90
2018-09-17T17:17:30.788Z,21.80
2018-09-17T17:19:58.907Z,21.90
2018-09-17T17:22:27.170Z,21.90
2018-09-17T17:24:55.267Z,21.90
2018-09-17T17:27:23.414Z,21.90
2018-09-17T17:29:51.505Z,21.90
2018-09-17T17:32:19.623Z,21.90
2018-09-17T17:34:47.693Z,22.00
2018-09-17T17:37:15.766Z,21.90
2018-09-17T17:39:44.026Z,22.00
2018-09-17T17:42:12.016Z,22.00
2018-09-17T17:44:40.419Z,22.00
2018-09-17T17:47:08.548Z,22.00
2018-09-17T17:49:36.656Z,22.00
2018-09-17T17:52:05.036Z,22.00
2018-09-17T17:54:33.234Z,22.00
2018-09-17T17:57:01.252Z,22.00
2018-09-17T17:59:29.318Z,22.00
2018-09-17T18:01:57.445Z,22.00
2018-09-17T18:04:25.643Z,22.00
2018-09-17T18:06:53.673Z,22.00
2018-09-17T18:09:21.816Z,22.00
2018-09-17T18:11:49.841Z,22.00
2018-09-17T18:14:17.937Z,22.00
2018-09-17T18:16:46.036Z,22.00
2018-09-17T18:19:14.124Z,22.00
2018-09-17T18:21:42.271Z,21.90
2018-09-17T18:24:10.285Z,21.90
2018-09-17T18:26:38.377Z,21.90
2018-09-17T18:29:06.448Z,21.90
2018-09-17T18:31:34.557Z,21.90
2018-09-17T18:34:02.645Z,21.80
2018-09-17T18:36:30.896Z,21.80
2018-09-17T18:38:58.980Z,21.80
2018-09-17T18:41:27.026Z,21.80
2018-09-17T18:43:55.128Z,21.80
2018-09-17T18:46:23.205Z,21.80
2018-09-17T18:48:51.300Z,21.80
2018-09-17T18:51:19.479Z,21.70
2018-09-17T18:53:47.560Z,21.60
2018-09-17T18:56:15.607Z,21.60
2018-09-17T18:58:43.699Z,21.60
2018-09-17T19:01:11.832Z,21.60
2018-09-17T19:03:39.931Z,21.60
2018-09-17T19:06:08.212Z,21.60
2018-09-17T19:08:36.229Z,21.60
2018-09-17T19:11:04.313Z,21.60
2018-09-17T19:13:32.424Z,21.50
2018-09-17T19:16:00.687Z,21.60
2018-09-17T19:18:28.837Z,21.50
2018-09-17T19:20:57.238Z,21.50
2018-09-17T19:23:31.017Z,21.50
2018-09-17T19:26:01.450Z,21.50
2018-09-17T19:28:35.001Z,21.50
2018-09-17T19:31:03.069Z,21.40
2018-09-17T19:33:31.288Z,21.40
2018-09-17T19:35:59.428Z,21.40
2018-09-17T19:38:33.044Z,21.40
2018-09-17T19:41:01.175Z,21.40
2018-09-17T19:43:29.373Z,21.40
2018-09-17T19:46:02.969Z,21.40
2018-09-17T19:48:31.048Z,21.30
2018-09-17T19:51:04.565Z,21.30
2018-09-17T19:53:32.725Z,21.30
2018-09-17T19:56:00.984Z,21.20
2018-09-17T19:58:34.525Z,21.30
2018-09-17T20:01:02.662Z,21.40
2018-09-17T20:03:31.124Z,21.40
2018-09-17T20:06:04.740Z,21.30
2018-09-17T20:08:32.855Z,21.30
2018-09-17T20:11:00.966Z,21.30
2018-09-17T20:13:29.045Z,21.20
2018-09-17T20:15:59.833Z,21.20
2018-09-17T20:18:28.004Z,21.20
2018-09-17T20:20:56.165Z,21.20
2018-09-17T20:23:24.268Z,21.10
2018-09-17T20:25:52.348Z,21.10
2018-09-17T20:28:20.461Z,21.10
2018-09-17T20:30:48.549Z,21.10
2018-09-17T20:33:16.733Z,21.20
2018-09-17T20:35:44.827Z,21.20
2018-09-17T20:38:12.932Z,21.20
2018-09-17T20:40:41.025Z,21.10
2018-09-17T20:43:09.104Z,21.00
2018-09-17T20:45:37.193Z,20.90
2018-09-17T20:48:05.269Z,20.90
2018-09-17T20:50:33.374Z,20.80
2018-09-17T20:53:01.505Z,20.80
2018-09-17T20:55:29.710Z,20.80
2018-09-17T20:57:57.736Z,20.80
2018-09-17T21:00:25.841Z,20.80
2018-09-17T21:02:53.939Z,20.80
2018-09-17T21:05:22.037Z,20.80
2018-09-17T21:07:50.192Z,20.80
2018-09-17T21:10:18.334Z,20.80
2018-09-17T21:12:46.579Z,20.70
2018-09-17T21:15:14.613Z,20.70
2018-09-17T21:17:42.785Z,20.60
2018-09-17T21:20:10.865Z,20.60
2018-09-17T21:22:38.940Z,20.60
2018-09-17T21:25:07.077Z,20.70
2018-09-17T21:27:35.178Z,20.60
2018-09-17T21:30:03.280Z,20.50
2018-09-17T21:32:31.418Z,20.50
2018-09-17T21:34:59.572Z,20.40
2018-09-17T21:37:27.690Z,20.40
2018-09-17T21:39:55.796Z,20.50
2018-09-17T21:42:23.856Z,20.50
2018-09-17T21:44:51.940Z,20.50
2018-09-17T21:47:32.029Z,20.50
2018-09-17T21:50:00.168Z,20.50
2018-09-17T21:52:28.304Z,20.50
2018-09-17T21:54:56.385Z,20.30
2018-09-17T21:57:24.685Z,20.20
2018-09-17T21:59:52.769Z,20.20
2018-09-17T22:02:21.005Z,20.20
2018-09-17T22:04:49.068Z,20.20
2018-09-17T22:07:17.140Z,20.30
2018-09-17T22:09:45.231Z,20.30
2018-09-17T22:12:13.311Z,20.20
2018-09-17T22:14:41.388Z,20.00
2018-09-17T22:17:09.494Z,20.00
2018-09-17T22:19:37.570Z,20.00
2018-09-17T22:22:05.661Z,20.10
2018-09-17T22:24:33.778Z,20.10
2018-09-17T22:27:01.883Z,20.10
2018-09-17T22:29:30.030Z,20.10
2018-09-17T22:31:58.169Z,20.10
2018-09-17T22:34:26.301Z,20.00
2018-09-17T22:36:54.380Z,19.90
2018-09-17T22:39:22.462Z,20.00
2018-09-17T22:41:50.555Z,19.90
2018-09-17T22:44:18.638Z,19.80
2018-09-17T22:46:46.720Z,19.80
2018-09-17T22:49:14.805Z,19.90
2018-09-17T22:51:42.901Z,19.80
2018-09-17T22:54:10.994Z,19.70
2018-09-17T22:56:39.144Z,19.70
2018-09-17T22:59:07.226Z,19.60
2018-09-17T23:01:35.340Z,19.70
2018-09-17T23:04:03.420Z,19.60
2018-09-17T23:06:31.539Z,19.70
2018-09-17T23:08:59.653Z,19.60
2018-09-17T23:11:27.780Z,19.60
2018-09-17T23:13:55.870Z,19.60
2018-09-17T23:16:23.960Z,19.50
2018-09-17T23:18:52.096Z,19.50
2018-09-17T23:21:20.169Z,19.50
2018-09-17T23:23:48.274Z,19.40
2018-09-17T23:26:16.389Z,19.50
2018-09-17T23:28:44.504Z,19.50
2018-09-17T23:31:12.616Z,19.60
2018-09-17T23:33:40.727Z,19.60
2018-09-17T23:36:09.064Z,19.60
2018-09-17T23:38:37.153Z,19.60
2018-09-17T23:41:05.233Z,19.60
2018-09-17T23:43:33.446Z,19.40
2018-09-17T23:46:01.584Z,19.30
2018-09-17T23:48:29.696Z,19.30
2018-09-17T23:50:57.809Z,19.40
2018-09-17T23:53:26.000Z,19.40
2018-09-17T23:55:54.117Z,19.40
2018-09-17T23:58:22.205Z,19.40
